KDAY/DAY METAR and TAF weather

Enter ICAO airport designator
Station Type Date Time Source
KDAY METAR 2020/02/29 02:56 UTC NOAA

KDAY 290256Z 31013KT 9SM OVC032 M04/M09 A3006 RMK AO2 SNB49E54 SLP194 P0000 60000 T10441089 53013


Station Type Date Time Source
KDAY Decoded METAR 2020/02/29 02:56 UTC NOAA

COX DAYTON INTERNATIONAL, OH, United States (KDAY) 39-54N 084-13W 305M
Feb 28, 2020 - 09:56 PM EST / 2020.02.29 0256 UTC
Wind: from the NW (310 degrees) at 15 MPH (13 KT):0
Visibility: 9 mile(s):0
Sky conditions: overcast
Precipitation last hour: A trace
Temperature: 24.1 F (-4.4 C)
Windchill: 12 F (-11 C):1
Dew Point: 16.0 F (-8.9 C)
Relative Humidity: 70%
Pressure (altimeter): 30.06 in. Hg (1017 hPa)
Pressure tendency: 0.04 inches (1.3 hPa) higher than three hours ago
ob: KDAY 290256Z 31013KT 9SM OVC032 M04/M09 A3006 RMK AO2 SNB49E54 SLP194 P0000 60000 T10441089 53013
cycle: 3

Station Type Date Time Source
KDAY TAF 2020/02/29 02:15 UTC NOAA

TAF
AMD KDAY 290213Z 2902/2924 31014KT P6SM FEW024 OVC035
FM290300 31009KT P6SM SCT035 BKN250
FM290800 28008KT P6SM SCT250
FM291100 28008KT P6SM SCT120
FM291600 28010KT P6SM FEW250

Example: see airport list